Time;durP1;ratioP1;P1;durP2;ratioP2;P2;SDS_P1;SDS_P2;PMS_P1;PMS_P2;Temp;Humidity;BMP_temperature;BMP_pressure;BME280_temperature;BME280_humidity;BME280_pressure;Samples;Min_cycle;Max_cycle;Signal;HPM_P1;HPM_P2
2021/06/23 00:01:58;;;;;;;6.40;3.97;;;;;;;;;;5050884;28;20030;-71
2021/06/23 00:04:26;;;;;;;9.13;4.60;;;;;;;;;;5051228;28;20044;-71
2021/06/23 00:06:53;;;;;;;6.72;3.40;;;;;;;;;;5051341;28;20040;-70
2021/06/23 00:09:20;;;;;;;5.75;2.67;;;;;;;;;;5036876;28;20127;-71
2021/06/23 00:11:49;;;;;;;5.95;2.50;;;;;;;;;;5034304;28;20037;-71
2021/06/23 00:14:17;;;;;;;4.60;2.30;;;;;;;;;;5060982;28;20552;-70
2021/06/23 00:16:44;;;;;;;6.95;3.00;;;;;;;;;;5058550;28;20028;-71
2021/06/23 00:19:11;;;;;;;3.40;2.20;;;;;;;;;;5038116;28;20050;-71
2021/06/23 00:21:39;;;;;;;3.30;1.88;;;;;;;;;;5039866;28;20442;-71
2021/06/23 00:24:06;;;;;;;7.28;1.98;;;;;;;;;;5054439;28;20032;-71
2021/06/23 00:26:37;;;;;;;6.25;1.73;;;;;;;;;;5054649;28;20037;-72
2021/06/23 00:29:05;;;;;;;5.95;1.65;;;;;;;;;;5036228;28;20110;-70
2021/06/23 00:31:33;;;;;;;4.93;1.33;;;;;;;;;;5039275;28;20120;-70
2021/06/23 00:34:04;;;;;;;3.40;1.00;;;;;;;;;;5072452;28;20033;-70
2021/06/23 00:36:31;;;;;;;6.75;1.85;;;;;;;;;;5065071;28;20389;-71
2021/06/23 00:38:58;;;;;;;3.60;0.80;;;;;;;;;;5069955;28;20077;-71
2021/06/23 00:41:26;;;;;;;6.65;1.38;;;;;;;;;;5052107;28;20039;-71
2021/06/23 00:43:53;;;;;;;6.40;1.02;;;;;;;;;;5065335;28;20029;-70
2021/06/23 00:46:20;;;;;;;4.32;1.02;;;;;;;;;;5065481;28;20089;-71
2021/06/23 00:48:55;;;;;;;3.25;1.17;;;;;;;;;;5064579;28;20033;-71
2021/06/23 00:51:22;;;;;;;6.80;1.60;;;;;;;;;;5068609;28;20033;-73
2021/06/23 00:53:49;;;;;;;3.72;1.88;;;;;;;;;;5053064;28;20051;-72
2021/06/23 00:56:16;;;;;;;4.45;1.70;;;;;;;;;;5066978;28;20021;-72
2021/06/23 00:58:47;;;;;;;3.10;1.15;;;;;;;;;;5072516;28;20060;-72
2021/06/23 01:01:14;;;;;;;4.93;1.20;;;;;;;;;;5072666;28;20108;-72
2021/06/23 01:03:41;;;;;;;5.57;1.10;;;;;;;;;;5071147;28;20039;-71
2021/06/23 01:06:08;;;;;;;4.03;1.00;;;;;;;;;;5066105;28;20039;-71
2021/06/23 01:08:36;;;;;;;3.50;0.82;;;;;;;;;;5062205;28;20358;-71
2021/06/23 01:11:06;;;;;;;1.77;0.65;;;;;;;;;;5061212;28;20068;-71
2021/06/23 01:13:35;;;;;;;3.47;0.75;;;;;;;;;;5056072;28;20152;-71
2021/06/23 01:16:04;;;;;;;2.67;0.75;;;;;;;;;;5051314;28;20044;-72
2021/06/23 01:18:34;;;;;;;9.50;0.75;;;;;;;;;;5072729;28;20021;-70
2021/06/23 01:21:02;;;;;;;3.33;0.82;;;;;;;;;;5053600;28;20040;-71
2021/06/23 01:23:29;;;;;;;2.30;0.80;;;;;;;;;;5054843;28;20516;-72
2021/06/23 01:25:56;;;;;;;3.28;0.73;;;;;;;;;;5055065;28;20074;-71
2021/06/23 01:28:23;;;;;;;1.77;0.80;;;;;;;;;;5058185;28;20071;-71
2021/06/23 01:30:51;;;;;;;6.30;1.30;;;;;;;;;;5062559;28;20043;-72
2021/06/23 01:33:18;;;;;;;2.05;0.50;;;;;;;;;;5047951;28;20036;-71
2021/06/23 01:35:49;;;;;;;2.70;0.68;;;;;;;;;;5061688;28;20047;-71
2021/06/23 01:38:16;;;;;;;3.83;0.60;;;;;;;;;;5052641;28;20040;-71
2021/06/23 01:40:43;;;;;;;2.30;0.57;;;;;;;;;;5057006;28;20036;-70
2021/06/23 01:43:12;;;;;;;1.35;0.35;;;;;;;;;;5062403;28;20036;-70
2021/06/23 01:45:39;;;;;;;1.15;0.40;;;;;;;;;;5061663;28;20043;-69
2021/06/23 01:48:07;;;;;;;3.15;0.50;;;;;;;;;;5075764;28;20035;-69
2021/06/23 01:50:34;;;;;;;5.63;0.63;;;;;;;;;;5058701;28;20074;-70
2021/06/23 01:53:01;;;;;;;1.60;0.30;;;;;;;;;;5074422;28;20040;-70
2021/06/23 01:55:29;;;;;;;2.08;0.43;;;;;;;;;;5083999;28;20067;-69
2021/06/23 01:58:03;;;;;;;1.90;0.70;;;;;;;;;;5081646;28;20033;-70
2021/06/23 02:00:34;;;;;;;1.38;0.43;;;;;;;;;;5053723;28;20140;-70
2021/06/23 02:03:05;;;;;;;1.05;0.30;;;;;;;;;;5071745;28;20381;-69
2021/06/23 02:05:43;;;;;;;0.68;0.30;;;;;;;;;;5079994;28;20032;-70
2021/06/23 02:08:13;;;;;;;2.17;0.50;;;;;;;;;;5074812;28;20060;-70
2021/06/23 02:10:56;;;;;;;0.73;0.20;;;;;;;;;;5065909;28;20040;-70
2021/06/23 02:13:29;;;;;;;2.45;0.17;;;;;;;;;;5051864;28;20044;-70
2021/06/23 02:16:14;;;;;;;0.65;0.32;;;;;;;;;;5068982;28;20127;-71
2021/06/23 02:18:41;;;;;;;1.60;0.40;;;;;;;;;;5070810;28;20043;-71
2021/06/23 02:21:09;;;;;;;0.82;0.22;;;;;;;;;;5071493;28;20035;-71
2021/06/23 02:23:41;;;;;;;1.25;0.20;;;;;;;;;;5073294;28;20037;-70
2021/06/23 02:26:08;;;;;;;0.30;0.10;;;;;;;;;;5072425;28;20048;-70
2021/06/23 02:28:36;;;;;;;0.73;0.20;;;;;;;;;;5070354;28;20029;-70
2021/06/23 02:31:04;;;;;;;0.20;0.10;;;;;;;;;;5072288;28;20389;-70
2021/06/23 02:33:32;;;;;;;0.95;0.20;;;;;;;;;;5037573;28;20052;-70
2021/06/23 02:35:59;;;;;;;0.55;0.10;;;;;;;;;;5031082;28;20429;-70
2021/06/23 02:38:26;;;;;;;0.98;0.32;;;;;;;;;;5048417;28;20082;-70
2021/06/23 02:40:54;;;;;;;2.55;0.52;;;;;;;;;;5047580;28;20041;-70
2021/06/23 02:43:21;;;;;;;0.65;0.20;;;;;;;;;;5050063;28;20367;-70
2021/06/23 02:45:48;;;;;;;0.40;0.10;;;;;;;;;;5029007;28;20037;-70
2021/06/23 02:48:16;;;;;;;0.63;0.10;;;;;;;;;;5049653;28;20087;-70
2021/06/23 02:50:52;;;;;;;0.55;0.20;;;;;;;;;;5045160;28;20445;-70
2021/06/23 02:53:19;;;;;;;0.35;0.10;;;;;;;;;;5046685;28;20409;-71
2021/06/23 02:55:47;;;;;;;0.38;0.10;;;;;;;;;;5042996;28;20045;-71
2021/06/23 02:58:15;;;;;;;0.20;0.10;;;;;;;;;;5046416;28;20071;-71
2021/06/23 03:00:42;;;;;;;1.60;0.20;;;;;;;;;;5045555;28;20116;-70
2021/06/23 03:03:09;;;;;;;3.20;0.63;;;;;;;;;;5027424;28;20523;-70
2021/06/23 03:05:36;;;;;;;0.30;0.10;;;;;;;;;;5049544;28;20029;-72
2021/06/23 03:08:03;;;;;;;0.40;0.10;;;;;;;;;;5031509;28;20088;-72
2021/06/23 03:10:31;;;;;;;1.45;0.20;;;;;;;;;;5049765;28;20025;-71
2021/06/23 03:12:58;;;;;;;0.47;0.15;;;;;;;;;;5047811;28;20553;-71
2021/06/23 03:15:25;;;;;;;1.33;0.15;;;;;;;;;;5030254;28;20132;-70
2021/06/23 03:17:52;;;;;;;0.88;0.20;;;;;;;;;;5050440;28;20036;-70
2021/06/23 03:20:19;;;;;;;1.35;0.25;;;;;;;;;;5030874;28;20057;-70
2021/06/23 03:22:46;;;;;;;1.98;0.20;;;;;;;;;;5049322;28;20501;-70
2021/06/23 03:25:14;;;;;;;0.90;0.10;;;;;;;;;;5049239;28;20040;-70
2021/06/23 03:27:41;;;;;;;2.47;0.35;;;;;;;;;;5045455;28;20058;-71
2021/06/23 03:30:09;;;;;;;0.65;0.10;;;;;;;;;;5047930;28;20037;-70
2021/06/23 03:32:36;;;;;;;0.35;0.10;;;;;;;;;;4936990;28;2780867;-71
2021/06/23 03:35:03;;;;;;;1.27;0.20;;;;;;;;;;5054206;28;20033;-70
2021/06/23 03:37:30;;;;;;;0.13;0.05;;;;;;;;;;5059753;28;20084;-71
2021/06/23 03:39:57;;;;;;;1.65;0.15;;;;;;;;;;5056664;28;20097;-71
2021/06/23 03:42:27;;;;;;;1.90;0.20;;;;;;;;;;5052095;28;20100;-71
2021/06/23 03:44:54;;;;;;;0.57;0.20;;;;;;;;;;5053904;28;20048;-71
2021/06/23 03:47:21;;;;;;;3.25;0.40;;;;;;;;;;5052877;28;20482;-71
2021/06/23 03:49:48;;;;;;;1.30;0.50;;;;;;;;;;5046804;28;20041;-71
2021/06/23 03:52:15;;;;;;;1.45;0.50;;;;;;;;;;5051732;28;20033;-71
2021/06/23 03:54:43;;;;;;;1.20;0.52;;;;;;;;;;5056957;28;20037;-72
2021/06/23 03:57:10;;;;;;;2.58;0.40;;;;;;;;;;5049419;28;20459;-72
2021/06/23 03:59:37;;;;;;;1.25;0.30;;;;;;;;;;5052085;28;20056;-70
2021/06/23 04:02:05;;;;;;;0.63;0.28;;;;;;;;;;5049402;28;20044;-71
2021/06/23 04:04:32;;;;;;;4.20;0.50;;;;;;;;;;5043287;28;20040;-70
2021/06/23 04:06:59;;;;;;;1.38;0.20;;;;;;;;;;5046548;28;20481;-71
2021/06/23 04:09:26;;;;;;;1.30;0.45;;;;;;;;;;5048779;28;20197;-70
2021/06/23 04:11:54;;;;;;;1.40;0.40;;;;;;;;;;5043781;28;20036;-71
2021/06/23 04:14:21;;;;;;;3.60;0.88;;;;;;;;;;5048271;28;20394;-70
2021/06/23 04:16:48;;;;;;;2.10;0.80;;;;;;;;;;5045530;28;20072;-70
2021/06/23 04:19:15;;;;;;;1.92;0.60;;;;;;;;;;5044034;28;20104;-71
2021/06/23 04:21:42;;;;;;;1.85;0.63;;;;;;;;;;5041877;28;20128;-70
2021/06/23 04:24:09;;;;;;;2.78;0.50;;;;;;;;;;5043676;28;20094;-69
2021/06/23 04:26:36;;;;;;;1.48;0.45;;;;;;;;;;5041624;28;20094;-71
2021/06/23 04:29:03;;;;;;;2.35;0.60;;;;;;;;;;5050199;28;20033;-70
2021/06/23 04:31:32;;;;;;;2.25;0.40;;;;;;;;;;5052230;28;20030;-71
2021/06/23 04:33:59;;;;;;;2.20;0.22;;;;;;;;;;5049446;28;20501;-71
2021/06/23 04:36:26;;;;;;;0.85;0.20;;;;;;;;;;5049480;28;20401;-70
2021/06/23 04:38:53;;;;;;;3.50;0.63;;;;;;;;;;5049006;28;20037;-70
2021/06/23 04:41:20;;;;;;;1.35;0.30;;;;;;;;;;5046056;28;20041;-70
2021/06/23 04:43:48;;;;;;;4.50;0.20;;;;;;;;;;5048764;28;20045;-70
2021/06/23 04:46:15;;;;;;;0.93;0.30;;;;;;;;;;5050696;28;20033;-70
2021/06/23 04:48:42;;;;;;;3.75;0.50;;;;;;;;;;5049996;28;20051;-70
2021/06/23 04:51:11;;;;;;;2.95;0.70;;;;;;;;;;5049364;28;20025;-70
2021/06/23 04:53:38;;;;;;;0.43;0.20;;;;;;;;;;5049806;28;20091;-70
2021/06/23 04:56:06;;;;;;;1.02;0.47;;;;;;;;;;5047510;28;20045;-70
2021/06/23 04:58:33;;;;;;;0.22;0.10;;;;;;;;;;5048458;28;20037;-70
2021/06/23 05:01:00;;;;;;;1.45;0.40;;;;;;;;;;5047856;28;20065;-70
2021/06/23 05:03:27;;;;;;;1.92;0.40;;;;;;;;;;5050758;28;20482;-70
2021/06/23 05:05:57;;;;;;;0.60;0.30;;;;;;;;;;5045579;28;20116;-70
2021/06/23 05:08:24;;;;;;;1.42;0.30;;;;;;;;;;5026198;28;20098;-70
2021/06/23 05:10:52;;;;;;;3.35;0.45;;;;;;;;;;5048227;28;20037;-71
2021/06/23 05:13:19;;;;;;;0.63;0.28;;;;;;;;;;5045584;28;20065;-71
2021/06/23 05:15:46;;;;;;;2.55;0.30;;;;;;;;;;5049953;28;20112;-71
2021/06/23 05:18:13;;;;;;;1.00;0.30;;;;;;;;;;5051107;28;20490;-69
2021/06/23 05:20:40;;;;;;;2.83;0.52;;;;;;;;;;5049379;28;20460;-70
2021/06/23 05:23:08;;;;;;;1.73;0.43;;;;;;;;;;5053539;28;20025;-70
2021/06/23 05:25:36;;;;;;;2.22;0.30;;;;;;;;;;5047180;28;20033;-70
2021/06/23 05:28:03;;;;;;;0.65;0.30;;;;;;;;;;5052948;28;20027;-70
2021/06/23 05:30:30;;;;;;;3.88;0.50;;;;;;;;;;5049863;28;20463;-70
2021/06/23 05:32:57;;;;;;;3.97;0.52;;;;;;;;;;5048080;28;20056;-70
2021/06/23 05:35:24;;;;;;;1.35;0.30;;;;;;;;;;5051330;28;22602;-70
2021/06/23 05:37:51;;;;;;;2.05;0.40;;;;;;;;;;5049759;28;20047;-70
2021/06/23 05:40:18;;;;;;;2.45;0.40;;;;;;;;;;5049260;28;20059;-70
2021/06/23 05:42:46;;;;;;;1.38;0.30;;;;;;;;;;5051349;28;20062;-70
2021/06/23 05:45:13;;;;;;;1.30;0.30;;;;;;;;;;5054327;28;20120;-70
2021/06/23 05:47:40;;;;;;;1.38;0.38;;;;;;;;;;5048071;28;20041;-70
2021/06/23 05:50:08;;;;;;;1.70;0.30;;;;;;;;;;5048456;28;20116;-70
2021/06/23 05:52:35;;;;;;;1.63;0.50;;;;;;;;;;5052119;28;20051;-70
2021/06/23 05:55:02;;;;;;;3.80;0.60;;;;;;;;;;5049643;28;20033;-69
2021/06/23 05:57:29;;;;;;;3.10;0.45;;;;;;;;;;5054348;28;20033;-69
2021/06/23 05:59:56;;;;;;;2.13;0.40;;;;;;;;;;5052803;28;20619;-69
2021/06/23 06:02:24;;;;;;;2.35;0.50;;;;;;;;;;5054197;28;20033;-69
2021/06/23 06:04:51;;;;;;;1.00;0.40;;;;;;;;;;5050123;28;20049;-70
2021/06/23 06:07:18;;;;;;;2.30;0.43;;;;;;;;;;5050373;28;20042;-69
2021/06/23 06:09:45;;;;;;;2.25;0.43;;;;;;;;;;5049348;28;20041;-70
2021/06/23 06:12:12;;;;;;;7.50;6.40;;;;;;;;;;5056795;28;20048;-70
2021/06/23 06:14:39;;;;;;;25.83;23.20;;;;;;;;;;5052164;28;20114;-71
2021/06/23 06:17:06;;;;;;;11.20;8.88;;;;;;;;;;5053277;28;20033;-69
2021/06/23 06:19:34;;;;;;;5.90;3.60;;;;;;;;;;5049253;28;20489;-69
2021/06/23 06:22:01;;;;;;;8.40;6.60;;;;;;;;;;5053693;28;20037;-70
2021/06/23 06:24:28;;;;;;;13.18;7.60;;;;;;;;;;5052668;28;20440;-69
2021/06/23 06:26:55;;;;;;;10.13;7.10;;;;;;;;;;5051094;28;20035;-69
2021/06/23 06:29:22;;;;;;;8.65;4.45;;;;;;;;;;5051402;28;20032;-69
2021/06/23 06:31:52;;;;;;;8.98;4.68;;;;;;;;;;5053909;28;20028;-70
2021/06/23 06:34:19;;;;;;;6.57;4.75;;;;;;;;;;5072041;28;20504;-70
2021/06/23 06:36:46;;;;;;;2.92;1.70;;;;;;;;;;5064937;28;20033;-68
2021/06/23 06:39:13;;;;;;;2.70;1.42;;;;;;;;;;5070525;28;20473;-70
2021/06/23 06:41:40;;;;;;;5.32;3.80;;;;;;;;;;5070998;28;20032;-71
2021/06/23 06:44:08;;;;;;;5.53;2.42;;;;;;;;;;5054397;28;20036;-70
2021/06/23 06:46:36;;;;;;;5.18;2.95;;;;;;;;;;5053258;28;20060;-71
2021/06/23 06:49:04;;;;;;;5.63;3.58;;;;;;;;;;5071282;28;20403;-70
2021/06/23 06:51:31;;;;;;;2.10;1.10;;;;;;;;;;5070271;28;20081;-70
2021/06/23 06:53:59;;;;;;;1.30;0.60;;;;;;;;;;5053479;28;20075;-70
2021/06/23 06:56:26;;;;;;;1.83;1.17;;;;;;;;;;5071641;28;20102;-71
2021/06/23 06:58:53;;;;;;;2.75;1.88;;;;;;;;;;5072145;28;20036;-71
2021/06/23 07:01:20;;;;;;;7.82;2.97;;;;;;;;;;5071091;28;20048;-70
2021/06/23 07:03:48;;;;;;;4.03;1.98;;;;;;;;;;5070595;28;20040;-70
2021/06/23 07:06:16;;;;;;;6.47;2.20;;;;;;;;;;5069222;28;20028;-69
2021/06/23 07:08:43;;;;;;;3.40;2.17;;;;;;;;;;5053789;28;20071;-70
2021/06/23 07:11:10;;;;;;;2.03;0.60;;;;;;;;;;5068733;28;20442;-69
2021/06/23 07:13:37;;;;;;;3.92;1.67;;;;;;;;;;5048942;28;20489;-69
2021/06/23 07:16:04;;;;;;;7.32;1.38;;;;;;;;;;5068727;28;20071;-70
2021/06/23 07:18:31;;;;;;;2.22;1.15;;;;;;;;;;5068595;28;20199;-70
2021/06/23 07:20:58;;;;;;;3.50;0.60;;;;;;;;;;5070205;28;20031;-69
2021/06/23 07:23:25;;;;;;;3.80;0.70;;;;;;;;;;5065011;28;20098;-70
2021/06/23 07:25:53;;;;;;;4.80;0.90;;;;;;;;;;5069961;28;20040;-70
2021/06/23 07:28:29;;;;;;;5.03;1.30;;;;;;;;;;5066666;28;20137;-71
2021/06/23 07:30:56;;;;;;;6.65;1.20;;;;;;;;;;5049911;28;20599;-71
2021/06/23 07:33:23;;;;;;;4.68;1.23;;;;;;;;;;5068591;28;20048;-71
2021/06/23 07:38:35;;;;;;;4.38;0.98;;;;;;;;;;5068437;28;20125;-72
2021/06/23 07:41:03;;;;;;;4.40;1.10;;;;;;;;;;5065552;28;20036;-71
2021/06/23 07:43:31;;;;;;;7.88;0.75;;;;;;;;;;5063863;28;20511;-71
2021/06/23 07:46:00;;;;;;;3.55;0.90;;;;;;;;;;5066742;28;20028;-70
2021/06/23 07:48:37;;;;;;;5.55;1.58;;;;;;;;;;5052239;28;20166;-69
2021/06/23 07:51:13;;;;;;;7.95;2.47;;;;;;;;;;5050617;28;20400;-70
2021/06/23 07:56:32;;;;;;;12.05;1.83;;;;;;;;;;5068086;28;20044;-70
2021/06/23 08:10:08;;;;;;;6.95;1.88;;;;;;;;;;5069288;28;20123;-72
2021/06/23 08:13:18;;;;;;;3.35;1.23;;;;;;;;;;5051245;28;20034;-71
2021/06/23 08:15:29;;;;;;;3.60;1.40;;;;;;;;;;5058679;28;20489;-71
2021/06/23 08:17:57;;;;;;;8.02;1.65;;;;;;;;;;5053856;28;20059;-69
2021/06/23 08:20:25;;;;;;;6.22;1.33;;;;;;;;;;5069713;28;20024;-70
2021/06/23 08:22:52;;;;;;;7.40;1.77;;;;;;;;;;5070184;28;20037;-71
2021/06/23 08:25:21;;;;;;;4.70;1.60;;;;;;;;;;5070984;28;20028;-70
2021/06/23 08:27:52;;;;;;;8.10;3.20;;;;;;;;;;5053508;28;20033;-71
2021/06/23 08:30:19;;;;;;;3.83;2.15;;;;;;;;;;5067113;28;20501;-70
2021/06/23 08:32:46;;;;;;;4.45;2.17;;;;;;;;;;5070928;28;20048;-70
2021/06/23 08:35:14;;;;;;;2.95;1.38;;;;;;;;;;5070285;28;20417;-70
2021/06/23 08:37:42;;;;;;;5.63;1.80;;;;;;;;;;5071679;28;20040;-70
2021/06/23 08:40:11;;;;;;;5.90;1.40;;;;;;;;;;5075037;28;20032;-70
2021/06/23 08:42:38;;;;;;;5.72;1.80;;;;;;;;;;5070815;28;20033;-70
2021/06/23 08:45:07;;;;;;;4.65;2.08;;;;;;;;;;5065816;28;20035;-70
2021/06/23 08:47:38;;;;;;;7.47;2.85;;;;;;;;;;5069199;28;20573;-70
2021/06/23 08:50:06;;;;;;;8.60;3.00;;;;;;;;;;5060586;28;20108;-71
2021/06/23 08:52:33;;;;;;;4.88;2.20;;;;;;;;;;5074957;28;20047;-69
2021/06/23 08:55:00;;;;;;;6.18;2.22;;;;;;;;;;5075055;28;20036;-71
2021/06/23 08:57:27;;;;;;;6.05;1.90;;;;;;;;;;5074195;28;20064;-70
2021/06/23 08:59:54;;;;;;;5.53;2.15;;;;;;;;;;5074944;28;20032;-71
2021/06/23 09:02:21;;;;;;;4.88;1.58;;;;;;;;;;5075275;28;20111;-71
2021/06/23 09:05:02;;;;;;;4.88;2.13;;;;;;;;;;5060593;28;20464;-71
2021/06/23 09:07:44;;;;;;;4.18;1.33;;;;;;;;;;5075162;28;20037;-69
2021/06/23 09:10:27;;;;;;;4.53;1.48;;;;;;;;;;5053704;28;20036;-70
2021/06/23 09:13:06;;;;;;;3.95;1.75;;;;;;;;;;5074885;28;20111;-69
2021/06/23 09:15:44;;;;;;;4.32;1.55;;;;;;;;;;5073909;28;20040;-70
2021/06/23 09:18:11;;;;;;;4.82;1.80;;;;;;;;;;5058143;28;20041;-70
2021/06/23 09:20:39;;;;;;;4.25;1.50;;;;;;;;;;5073961;28;20102;-70
2021/06/23 09:23:06;;;;;;;5.63;2.17;;;;;;;;;;5074337;28;20143;-69
2021/06/23 09:25:37;;;;;;;4.32;1.70;;;;;;;;;;5055471;28;20041;-70
2021/06/23 09:28:05;;;;;;;3.40;2.00;;;;;;;;;;5074955;28;20029;-70
2021/06/23 09:30:35;;;;;;;2.67;1.58;;;;;;;;;;5074730;28;20036;-70
2021/06/23 09:33:19;;;;;;;4.95;1.90;;;;;;;;;;5044000;28;20048;-70
2021/06/23 09:35:46;;;;;;;5.18;1.77;;;;;;;;;;5043833;28;20447;-70
2021/06/23 09:38:32;;;;;;;2.97;1.55;;;;;;;;;;5035773;28;20048;-70
2021/06/23 09:41:00;;;;;;;3.78;1.23;;;;;;;;;;5038117;28;20033;-70
2021/06/23 09:43:37;;;;;;;3.38;1.90;;;;;;;;;;5046656;28;20037;-71
2021/06/23 09:46:33;;;;;;;4.13;2.20;;;;;;;;;;5044224;28;20038;-71
2021/06/23 09:49:08;;;;;;;6.32;2.05;;;;;;;;;;5023519;28;20030;-70
2021/06/23 09:51:58;;;;;;;4.00;1.60;;;;;;;;;;5034590;28;20037;-70
2021/06/23 09:54:26;;;;;;;8.20;2.72;;;;;;;;;;5033392;28;20045;-70
2021/06/23 09:56:54;;;;;;;5.32;2.60;;;;;;;;;;5034709;28;20437;-70
2021/06/23 09:59:29;;;;;;;3.33;1.60;;;;;;;;;;5040310;28;20021;-71
2021/06/23 10:01:56;;;;;;;4.05;1.48;;;;;;;;;;5039058;28;20432;-72
2021/06/23 10:04:30;;;;;;;3.90;1.50;;;;;;;;;;5030207;28;20103;-70
2021/06/23 10:06:57;;;;;;;;;;;;;;;;;;5037281;28;20706;-70
2021/06/23 10:09:25;;;;;;;3.42;1.10;;;;;;;;;;5033233;28;19900;-70
2021/06/23 10:11:54;;;;;;;2.92;1.52;;;;;;;;;;5039664;28;20069;-70
2021/06/23 10:14:22;;;;;;;2.42;1.02;;;;;;;;;;5028779;28;20135;-70
2021/06/23 10:16:50;;;;;;;2.47;1.50;;;;;;;;;;5051372;28;20500;-70
2021/06/23 10:19:17;;;;;;;3.72;1.77;;;;;;;;;;5043013;28;20057;-70
2021/06/23 10:21:44;;;;;;;2.40;1.13;;;;;;;;;;5053443;28;20501;-70
2021/06/23 10:24:12;;;;;;;2.45;1.15;;;;;;;;;;5051630;28;20124;-70
2021/06/23 10:26:50;;;;;;;1.73;0.82;;;;;;;;;;5041477;28;20053;-70
2021/06/23 10:29:22;;;;;;;1.92;0.82;;;;;;;;;;5045552;28;20034;-70
2021/06/23 10:31:49;;;;;;;1.88;0.98;;;;;;;;;;5031639;28;20043;-70
2021/06/23 10:34:17;;;;;;;4.75;1.17;;;;;;;;;;5053452;28;20037;-70
2021/06/23 10:36:45;;;;;;;2.47;0.80;;;;;;;;;;5052955;28;20076;-71
2021/06/23 10:39:12;;;;;;;1.48;0.77;;;;;;;;;;5053696;28;20033;-71
2021/06/23 10:41:40;;;;;;;2.03;0.70;;;;;;;;;;5052918;28;20044;-71
2021/06/23 10:44:19;;;;;;;2.45;0.70;;;;;;;;;;5053380;28;20358;-70
2021/06/23 10:46:47;;;;;;;1.05;0.60;;;;;;;;;;5023643;28;20065;-70
2021/06/23 10:49:18;;;;;;;1.52;0.65;;;;;;;;;;5050981;28;20036;-71
2021/06/23 10:51:51;;;;;;;2.47;0.60;;;;;;;;;;5053249;28;20029;-70
2021/06/23 10:54:44;;;;;;;1.25;0.77;;;;;;;;;;5052559;28;20061;-71
2021/06/23 10:57:24;;;;;;;4.47;0.52;;;;;;;;;;5048176;28;20129;-70
2021/06/23 10:59:52;;;;;;;2.08;0.30;;;;;;;;;;5033335;28;20131;-71
2021/06/23 11:02:19;;;;;;;1.95;0.50;;;;;;;;;;5050831;28;20032;-71
2021/06/23 11:05:02;;;;;;;1.45;0.73;;;;;;;;;;5052124;28;20048;-71
2021/06/23 11:07:35;;;;;;;1.05;0.32;;;;;;;;;;5052077;28;20029;-71
2021/06/23 11:10:15;;;;;;;1.38;0.57;;;;;;;;;;5050513;28;20029;-71
2021/06/23 11:12:45;;;;;;;1.50;0.40;;;;;;;;;;5051447;28;20033;-71
2021/06/23 11:15:20;;;;;;;2.72;0.30;;;;;;;;;;5045795;28;20040;-71
2021/06/23 11:17:48;;;;;;;0.68;0.25;;;;;;;;;;5049339;28;20037;-71
2021/06/23 11:20:21;;;;;;;1.38;0.40;;;;;;;;;;5047312;28;20072;-70
2021/06/23 11:22:48;;;;;;;2.13;0.30;;;;;;;;;;5047977;28;20063;-70
2021/06/23 11:25:25;;;;;;;0.80;0.30;;;;;;;;;;5047724;28;20483;-70
2021/06/23 11:28:08;;;;;;;1.20;0.30;;;;;;;;;;5029772;28;20037;-70
2021/06/23 11:30:55;;;;;;;0.73;0.30;;;;;;;;;;5029841;28;20041;-70
2021/06/23 11:33:29;;;;;;;0.88;0.30;;;;;;;;;;5041521;28;20049;-72
2021/06/23 11:36:00;;;;;;;0.43;0.30;;;;;;;;;;5044979;28;20048;-70
2021/06/23 11:38:27;;;;;;;1.05;0.30;;;;;;;;;;5050448;28;20069;-71
2021/06/23 11:40:56;;;;;;;0.88;0.60;;;;;;;;;;5048609;28;20557;-72
2021/06/23 11:43:23;;;;;;;1.20;0.30;;;;;;;;;;5050507;28;20041;-71
2021/06/23 11:45:51;;;;;;;1.48;0.30;;;;;;;;;;5042374;28;20045;-71
2021/06/23 11:48:18;;;;;;;1.35;0.30;;;;;;;;;;5051584;28;20033;-71
2021/06/23 11:50:46;;;;;;;1.23;0.47;;;;;;;;;;5051083;28;20115;-71
2021/06/23 11:53:15;;;;;;;0.70;0.22;;;;;;;;;;5046281;28;20047;-71
2021/06/23 11:55:43;;;;;;;1.35;0.30;;;;;;;;;;5049885;28;20037;-71
2021/06/23 11:58:10;;;;;;;2.38;0.50;;;;;;;;;;5046354;28;20029;-70
2021/06/23 12:00:38;;;;;;;0.80;0.32;;;;;;;;;;5050893;28;20033;-71
2021/06/23 12:03:06;;;;;;;3.38;0.47;;;;;;;;;;5052101;28;20110;-71
2021/06/23 12:05:34;;;;;;;0.70;0.30;;;;;;;;;;5051113;28;20056;-72
2021/06/23 12:08:01;;;;;;;1.60;0.35;;;;;;;;;;5050014;28;20044;-69
2021/06/23 12:10:29;;;;;;;2.67;0.45;;;;;;;;;;5050285;28;20032;-70
2021/06/23 12:12:57;;;;;;;0.70;0.30;;;;;;;;;;5050110;28;20028;-71
2021/06/23 12:15:24;;;;;;;1.30;0.20;;;;;;;;;;5046942;28;20099;-70
2021/06/23 12:17:53;;;;;;;0.65;0.20;;;;;;;;;;5050275;28;20109;-71
2021/06/23 12:20:21;;;;;;;1.13;0.60;;;;;;;;;;5050920;28;20029;-71
2021/06/23 12:22:58;;;;;;;0.50;0.20;;;;;;;;;;5043223;28;20513;-71
2021/06/23 12:25:26;;;;;;;1.02;0.30;;;;;;;;;;5049335;28;20029;-71
2021/06/23 12:27:54;;;;;;;1.63;0.30;;;;;;;;;;5052206;28;20040;-72
2021/06/23 12:30:21;;;;;;;0.60;0.28;;;;;;;;;;5047305;28;20044;-70
2021/06/23 12:32:50;;;;;;;0.52;0.40;;;;;;;;;;5059189;28;20082;-70
2021/06/23 12:35:17;;;;;;;0.75;0.63;;;;;;;;;;5067840;28;20082;-70
2021/06/23 12:37:44;;;;;;;0.93;0.40;;;;;;;;;;5067727;28;20072;-71
2021/06/23 12:40:12;;;;;;;0.40;0.30;;;;;;;;;;5069436;28;20033;-70
2021/06/23 12:42:39;;;;;;;0.60;0.20;;;;;;;;;;5071203;28;20041;-71
2021/06/23 12:45:06;;;;;;;0.75;0.20;;;;;;;;;;5063599;28;20718;-70
2021/06/23 12:47:33;;;;;;;0.90;0.20;;;;;;;;;;5071131;28;20445;-71
2021/06/23 12:50:00;;;;;;;4.20;0.98;;;;;;;;;;5069433;28;20021;-70
2021/06/23 12:52:28;;;;;;;0.60;0.20;;;;;;;;;;5070892;28;20553;-71
2021/06/23 12:54:55;;;;;;;0.55;0.30;;;;;;;;;;5070568;28;20397;-71
2021/06/23 12:57:22;;;;;;;1.42;0.28;;;;;;;;;;5071129;28;20393;-71
2021/06/23 12:59:49;;;;;;;0.32;0.20;;;;;;;;;;5069534;28;20029;-71
2021/06/23 13:02:17;;;;;;;0.30;0.20;;;;;;;;;;5071081;28;20113;-71
2021/06/23 13:04:44;;;;;;;1.98;0.25;;;;;;;;;;5068191;28;20049;-71
2021/06/23 13:07:11;;;;;;;0.30;0.20;;;;;;;;;;5066163;28;20020;-71
2021/06/23 13:09:41;;;;;;;0.60;0.20;;;;;;;;;;5069545;28;20437;-70
2021/06/23 13:12:09;;;;;;;2.05;0.30;;;;;;;;;;5068527;28;20044;-70
2021/06/23 13:14:36;;;;;;;2.50;0.30;;;;;;;;;;5068559;28;20039;-70
2021/06/23 13:17:03;;;;;;;0.45;0.20;;;;;;;;;;5069712;28;20037;-70
2021/06/23 13:19:30;;;;;;;0.30;0.20;;;;;;;;;;5069234;28;20048;-70
2021/06/23 13:21:57;;;;;;;3.60;0.40;;;;;;;;;;5070222;28;20028;-70
2021/06/23 13:24:24;;;;;;;2.13;0.20;;;;;;;;;;5070642;28;20115;-70
2021/06/23 13:26:52;;;;;;;0.63;0.40;;;;;;;;;;5070215;28;20546;-70
2021/06/23 13:29:19;;;;;;;0.70;0.30;;;;;;;;;;5050258;28;20033;-70
2021/06/23 13:31:46;;;;;;;1.45;0.20;;;;;;;;;;5070564;28;20044;-70
2021/06/23 13:34:13;;;;;;;0.20;0.20;;;;;;;;;;5071106;28;20033;-70
2021/06/23 13:36:40;;;;;;;0.85;0.20;;;;;;;;;;5072808;28;20047;-71
2021/06/23 13:39:10;;;;;;;1.20;0.30;;;;;;;;;;5072586;28;20024;-71
2021/06/23 13:41:40;;;;;;;0.75;0.20;;;;;;;;;;5059402;28;20037;-70
2021/06/23 13:44:07;;;;;;;1.95;0.28;;;;;;;;;;5072005;28;20063;-71
2021/06/23 13:46:36;;;;;;;1.63;0.30;;;;;;;;;;5073728;28;20060;-71
2021/06/23 13:49:03;;;;;;;2.55;0.20;;;;;;;;;;5072812;28;20040;-70
2021/06/23 13:51:31;;;;;;;0.50;0.40;;;;;;;;;;5071721;28;20024;-71
2021/06/23 13:54:00;;;;;;;1.75;0.30;;;;;;;;;;5074500;28;20032;-71
2021/06/23 13:56:28;;;;;;;0.40;0.20;;;;;;;;;;5073205;28;20035;-71
2021/06/23 13:58:55;;;;;;;1.15;0.40;;;;;;;;;;5073237;28;20354;-71
2021/06/23 14:01:22;;;;;;;1.20;0.43;;;;;;;;;;5070045;28;20025;-71
2021/06/23 14:03:54;;;;;;;1.40;0.40;;;;;;;;;;5055751;28;20071;-71
2021/06/23 14:06:21;;;;;;;0.20;0.20;;;;;;;;;;5073115;28;20032;-71
2021/06/23 14:08:48;;;;;;;0.25;0.20;;;;;;;;;;5074215;28;20032;-71
2021/06/23 14:11:16;;;;;;;1.13;0.30;;;;;;;;;;5072820;28;20029;-71
2021/06/23 14:13:43;;;;;;;0.38;0.20;;;;;;;;;;5072361;28;20045;-71
2021/06/23 14:16:10;;;;;;;2.45;0.30;;;;;;;;;;5071411;28;20342;-71
2021/06/23 14:18:37;;;;;;;0.50;0.20;;;;;;;;;;5072348;28;20036;-71
2021/06/23 14:21:05;;;;;;;2.20;0.15;;;;;;;;;;5072892;28;20028;-71
2021/06/23 14:23:36;;;;;;;0.30;0.10;;;;;;;;;;5073893;28;20032;-71
2021/06/23 14:26:06;;;;;;;1.65;0.30;;;;;;;;;;5071890;28;20028;-70
2021/06/23 14:28:35;;;;;;;0.35;0.15;;;;;;;;;;5054051;28;20124;-71
2021/06/23 14:31:02;;;;;;;0.75;0.20;;;;;;;;;;5071667;28;20086;-71
2021/06/23 14:33:29;;;;;;;0.55;0.17;;;;;;;;;;5072840;28;20520;-71
2021/06/23 14:35:57;;;;;;;0.63;0.20;;;;;;;;;;5069730;28;20044;-70
2021/06/23 14:38:24;;;;;;;0.70;0.38;;;;;;;;;;5064177;28;20457;-71
2021/06/23 14:40:51;;;;;;;2.28;0.30;;;;;;;;;;5071663;28;20039;-71
2021/06/23 14:43:18;;;;;;;1.42;0.13;;;;;;;;;;5066102;28;20029;-71
2021/06/23 14:45:45;;;;;;;0.80;0.30;;;;;;;;;;5072081;28;20043;-71
2021/06/23 14:48:12;;;;;;;0.30;0.17;;;;;;;;;;5072068;28;20036;-71
2021/06/23 14:50:40;;;;;;;0.20;0.10;;;;;;;;;;5071075;28;20036;-72
2021/06/23 14:53:07;;;;;;;1.00;0.20;;;;;;;;;;5072490;28;20086;-71
2021/06/23 14:55:34;;;;;;;2.38;0.50;;;;;;;;;;5072151;28;20028;-71
2021/06/23 14:58:03;;;;;;;2.25;0.20;;;;;;;;;;5054699;28;20519;-72
2021/06/23 15:00:30;;;;;;;1.55;0.20;;;;;;;;;;5072268;28;20039;-71
2021/06/23 15:02:57;;;;;;;0.50;0.20;;;;;;;;;;5071386;28;20025;-70
2021/06/23 15:05:25;;;;;;;0.98;0.50;;;;;;;;;;5070396;28;20028;-70
2021/06/23 15:07:52;;;;;;;1.65;0.20;;;;;;;;;;5055278;28;20499;-71
2021/06/23 15:10:19;;;;;;;2.60;0.13;;;;;;;;;;5070426;28;20033;-71